GCFV

Fuerteventura Airport

Fuerteventura Island, Spain
METAR GCFV 230030Z AUTO 20013KT 9999 FEW019/// 21/19 Q1018
Observed Flight Rules
Oct-23 @ 00:30 UTC (32 minutes ago) Visual Flight Rules
Wind Visibility Clouds
200° at 13 knots 10,000+ meters
  • Few at 1,900' AGL
Temperatures Readings
Current 21°C / 70°F
Dewpoint 19°C / 66°F
Humidity 88%
Altimeter 30.06" Hg
Pressure 1018 hPa
Elevation 23
METAR GCFV 230030Z AUTO 20013KT 9999 FEW019/// 21/19 Q1018
Observed Flight Rules
Oct-23 @ 00:30 UTC
(32 minutes ago)
VFR
Wind Visibility
200° at 13 knots 10,000+ meters
Clouds
  • Few at 1,900' AGL
Temperature Dewpoint
21°C / 70°F 19°C / 66°F
Humidity Altimeter Pressure
88% 30.06" Hg 1018 hPa